sensor_id;sensor_type;location;lat;lon;timestamp;P1;durP1;ratioP1;P2;durP2;ratioP2
64225;SDS011;50545;56.064;26.178;2023-11-19T00:00:09;5.43;;;2.78;;
64225;SDS011;50545;56.064;26.178;2023-11-19T00:02:41;5.90;;;2.80;;
64225;SDS011;50545;56.064;26.178;2023-11-19T00:05:10;4.95;;;2.40;;
64225;SDS011;50545;56.064;26.178;2023-11-19T00:07:42;5.05;;;3.20;;
64225;SDS011;50545;56.064;26.178;2023-11-19T00:10:10;7.13;;;3.50;;
64225;SDS011;50545;56.064;26.178;2023-11-19T00:12:39;4.95;;;2.90;;
64225;SDS011;50545;56.064;26.178;2023-11-19T00:15:13;6.47;;;2.95;;
64225;SDS011;50545;56.064;26.178;2023-11-19T00:17:42;4.55;;;2.88;;
64225;SDS011;50545;56.064;26.178;2023-11-19T00:20:18;5.55;;;2.90;;
64225;SDS011;50545;56.064;26.178;2023-11-19T00:22:48;5.13;;;2.83;;
64225;SDS011;50545;56.064;26.178;2023-11-19T00:27:48;4.88;;;3.00;;
64225;SDS011;50545;56.064;26.178;2023-11-19T00:30:17;3.72;;;2.60;;
64225;SDS011;50545;56.064;26.178;2023-11-19T00:32:45;5.25;;;2.92;;
64225;SDS011;50545;56.064;26.178;2023-11-19T00:35:12;6.13;;;3.13;;
64225;SDS011;50545;56.064;26.178;2023-11-19T00:37:41;6.15;;;3.03;;
64225;SDS011;50545;56.064;26.178;2023-11-19T00:40:09;6.20;;;3.00;;
64225;SDS011;50545;56.064;26.178;2023-11-19T00:42:38;6.38;;;3.10;;
64225;SDS011;50545;56.064;26.178;2023-11-19T00:45:05;6.32;;;3.20;;
64225;SDS011;50545;56.064;26.178;2023-11-19T00:47:37;7.55;;;3.15;;
64225;SDS011;50545;56.064;26.178;2023-11-19T00:50:04;5.30;;;3.05;;
64225;SDS011;50545;56.064;26.178;2023-11-19T00:52:36;4.30;;;2.80;;
64225;SDS011;50545;56.064;26.178;2023-11-19T00:55:04;5.60;;;2.97;;
64225;SDS011;50545;56.064;26.178;2023-11-19T00:57:34;4.72;;;3.03;;
64225;SDS011;50545;56.064;26.178;2023-11-19T01:00:02;6.43;;;2.80;;
64225;SDS011;50545;56.064;26.178;2023-11-19T01:02:39;5.53;;;3.17;;
64225;SDS011;50545;56.064;26.178;2023-11-19T01:05:07;4.88;;;2.85;;
64225;SDS011;50545;56.064;26.178;2023-11-19T01:07:35;6.97;;;3.20;;
64225;SDS011;50545;56.064;26.178;2023-11-19T01:10:03;5.00;;;2.80;;
64225;SDS011;50545;56.064;26.178;2023-11-19T01:12:31;6.75;;;3.17;;
64225;SDS011;50545;56.064;26.178;2023-11-19T01:14:59;6.15;;;2.90;;
64225;SDS011;50545;56.064;26.178;2023-11-19T01:17:27;5.40;;;3.10;;
64225;SDS011;50545;56.064;26.178;2023-11-19T01:19:55;5.93;;;3.42;;
64225;SDS011;50545;56.064;26.178;2023-11-19T01:22:22;5.80;;;3.20;;
64225;SDS011;50545;56.064;26.178;2023-11-19T01:24:50;5.53;;;3.00;;
64225;SDS011;50545;56.064;26.178;2023-11-19T01:27:18;5.38;;;2.80;;
64225;SDS011;50545;56.064;26.178;2023-11-19T01:29:46;5.25;;;3.08;;
64225;SDS011;50545;56.064;26.178;2023-11-19T01:32:14;5.95;;;3.15;;
64225;SDS011;50545;56.064;26.178;2023-11-19T01:34:41;4.35;;;2.58;;
64225;SDS011;50545;56.064;26.178;2023-11-19T01:37:09;5.80;;;3.22;;
64225;SDS011;50545;56.064;26.178;2023-11-19T01:39:37;5.38;;;2.85;;
64225;SDS011;50545;56.064;26.178;2023-11-19T01:42:05;4.80;;;3.00;;
64225;SDS011;50545;56.064;26.178;2023-11-19T01:44:33;5.88;;;2.75;;
64225;SDS011;50545;56.064;26.178;2023-11-19T01:47:01;3.90;;;2.45;;
64225;SDS011;50545;56.064;26.178;2023-11-19T01:49:30;3.63;;;2.07;;
64225;SDS011;50545;56.064;26.178;2023-11-19T01:51:59;4.15;;;2.40;;
64225;SDS011;50545;56.064;26.178;2023-11-19T01:54:27;6.10;;;2.92;;
64225;SDS011;50545;56.064;26.178;2023-11-19T01:56:55;4.00;;;2.50;;
64225;SDS011;50545;56.064;26.178;2023-11-19T01:59:23;4.65;;;2.88;;
64225;SDS011;50545;56.064;26.178;2023-11-19T02:01:54;6.70;;;2.75;;
64225;SDS011;50545;56.064;26.178;2023-11-19T02:04:25;5.88;;;2.97;;
64225;SDS011;50545;56.064;26.178;2023-11-19T02:06:54;5.30;;;2.97;;
64225;SDS011;50545;56.064;26.178;2023-11-19T02:09:25;4.68;;;2.90;;
64225;SDS011;50545;56.064;26.178;2023-11-19T02:11:53;3.88;;;2.22;;
64225;SDS011;50545;56.064;26.178;2023-11-19T02:14:22;3.35;;;1.98;;
64225;SDS011;50545;56.064;26.178;2023-11-19T02:19:20;3.67;;;1.88;;
64225;SDS011;50545;56.064;26.178;2023-11-19T02:21:47;3.13;;;2.10;;
64225;SDS011;50545;56.064;26.178;2023-11-19T02:24:15;2.05;;;1.65;;
64225;SDS011;50545;56.064;26.178;2023-11-19T02:26:51;4.18;;;2.25;;
64225;SDS011;50545;56.064;26.178;2023-11-19T02:29:23;4.35;;;2.13;;
64225;SDS011;50545;56.064;26.178;2023-11-19T02:31:50;4.25;;;1.88;;
64225;SDS011;50545;56.064;26.178;2023-11-19T02:34:18;2.70;;;1.77;;
64225;SDS011;50545;56.064;26.178;2023-11-19T02:36:45;4.28;;;1.98;;
64225;SDS011;50545;56.064;26.178;2023-11-19T02:39:14;3.30;;;2.03;;
64225;SDS011;50545;56.064;26.178;2023-11-19T02:41:41;4.60;;;2.30;;
64225;SDS011;50545;56.064;26.178;2023-11-19T02:44:09;2.30;;;1.65;;
64225;SDS011;50545;56.064;26.178;2023-11-19T02:46:38;3.42;;;2.20;;
64225;SDS011;50545;56.064;26.178;2023-11-19T02:51:36;2.72;;;1.75;;
64225;SDS011;50545;56.064;26.178;2023-11-19T02:54:04;2.78;;;1.73;;
64225;SDS011;50545;56.064;26.178;2023-11-19T02:56:32;5.10;;;2.33;;
64225;SDS011;50545;56.064;26.178;2023-11-19T02:59:03;4.00;;;2.35;;
64225;SDS011;50545;56.064;26.178;2023-11-19T03:01:45;4.47;;;1.63;;
64225;SDS011;50545;56.064;26.178;2023-11-19T03:04:16;3.03;;;1.88;;
64225;SDS011;50545;56.064;26.178;2023-11-19T03:09:14;2.97;;;2.08;;
64225;SDS011;50545;56.064;26.178;2023-11-19T03:11:42;3.72;;;2.28;;
64225;SDS011;50545;56.064;26.178;2023-11-19T03:14:09;3.65;;;2.25;;
64225;SDS011;50545;56.064;26.178;2023-11-19T03:16:37;4.03;;;2.03;;
64225;SDS011;50545;56.064;26.178;2023-11-19T03:19:04;3.20;;;1.90;;
64225;SDS011;50545;56.064;26.178;2023-11-19T03:21:32;3.53;;;2.08;;
64225;SDS011;50545;56.064;26.178;2023-11-19T03:23:59;3.25;;;1.65;;
64225;SDS011;50545;56.064;26.178;2023-11-19T03:26:27;2.13;;;1.80;;
64225;SDS011;50545;56.064;26.178;2023-11-19T03:28:54;2.80;;;1.85;;
64225;SDS011;50545;56.064;26.178;2023-11-19T03:31:23;2.78;;;1.88;;
64225;SDS011;50545;56.064;26.178;2023-11-19T03:33:52;2.63;;;1.63;;
64225;SDS011;50545;56.064;26.178;2023-11-19T03:36:22;6.25;;;2.53;;
64225;SDS011;50545;56.064;26.178;2023-11-19T03:38:50;4.18;;;2.10;;
64225;SDS011;50545;56.064;26.178;2023-11-19T03:41:19;2.72;;;2.10;;
64225;SDS011;50545;56.064;26.178;2023-11-19T03:43:47;3.35;;;2.25;;
64225;SDS011;50545;56.064;26.178;2023-11-19T03:46:17;4.03;;;2.47;;
64225;SDS011;50545;56.064;26.178;2023-11-19T03:48:46;3.60;;;2.13;;
64225;SDS011;50545;56.064;26.178;2023-11-19T03:51:17;7.28;;;3.15;;
64225;SDS011;50545;56.064;26.178;2023-11-19T03:53:45;8.23;;;3.65;;
64225;SDS011;50545;56.064;26.178;2023-11-19T03:56:13;6.85;;;3.17;;
64225;SDS011;50545;56.064;26.178;2023-11-19T03:58:41;8.55;;;3.47;;
64225;SDS011;50545;56.064;26.178;2023-11-19T04:01:11;6.07;;;2.83;;
64225;SDS011;50545;56.064;26.178;2023-11-19T04:03:40;3.67;;;2.30;;
64225;SDS011;50545;56.064;26.178;2023-11-19T04:06:11;4.40;;;2.30;;
64225;SDS011;50545;56.064;26.178;2023-11-19T04:08:38;3.88;;;2.35;;
64225;SDS011;50545;56.064;26.178;2023-11-19T04:11:06;4.65;;;2.40;;
64225;SDS011;50545;56.064;26.178;2023-11-19T04:13:35;4.00;;;2.35;;
64225;SDS011;50545;56.064;26.178;2023-11-19T04:16:02;3.90;;;2.47;;
64225;SDS011;50545;56.064;26.178;2023-11-19T04:18:31;4.57;;;2.13;;
64225;SDS011;50545;56.064;26.178;2023-11-19T04:20:59;4.60;;;2.53;;
64225;SDS011;50545;56.064;26.178;2023-11-19T04:23:27;4.72;;;2.40;;
64225;SDS011;50545;56.064;26.178;2023-11-19T04:25:55;3.15;;;2.22;;
64225;SDS011;50545;56.064;26.178;2023-11-19T04:28:37;3.72;;;1.88;;
64225;SDS011;50545;56.064;26.178;2023-11-19T04:31:04;5.47;;;2.60;;
64225;SDS011;50545;56.064;26.178;2023-11-19T04:33:33;5.88;;;2.40;;
64225;SDS011;50545;56.064;26.178;2023-11-19T04:36:00;4.75;;;2.15;;
64225;SDS011;50545;56.064;26.178;2023-11-19T04:38:29;2.60;;;1.88;;
64225;SDS011;50545;56.064;26.178;2023-11-19T04:40:57;3.88;;;2.40;;
64225;SDS011;50545;56.064;26.178;2023-11-19T04:43:24;3.67;;;2.35;;
64225;SDS011;50545;56.064;26.178;2023-11-19T04:45:52;4.95;;;2.13;;
64225;SDS011;50545;56.064;26.178;2023-11-19T04:48:20;4.75;;;2.30;;
64225;SDS011;50545;56.064;26.178;2023-11-19T04:50:48;4.07;;;1.98;;
64225;SDS011;50545;56.064;26.178;2023-11-19T04:53:15;2.78;;;2.03;;
64225;SDS011;50545;56.064;26.178;2023-11-19T04:55:43;3.70;;;2.08;;
64225;SDS011;50545;56.064;26.178;2023-11-19T04:58:11;4.78;;;2.20;;
64225;SDS011;50545;56.064;26.178;2023-11-19T05:00:39;4.05;;;2.40;;
64225;SDS011;50545;56.064;26.178;2023-11-19T05:03:06;3.83;;;2.25;;
64225;SDS011;50545;56.064;26.178;2023-11-19T05:05:35;3.05;;;1.85;;
64225;SDS011;50545;56.064;26.178;2023-11-19T05:08:02;3.53;;;2.28;;
64225;SDS011;50545;56.064;26.178;2023-11-19T05:10:30;3.63;;;2.22;;
64225;SDS011;50545;56.064;26.178;2023-11-19T05:12:58;4.10;;;2.35;;
64225;SDS011;50545;56.064;26.178;2023-11-19T05:15:25;3.90;;;2.40;;
64225;SDS011;50545;56.064;26.178;2023-11-19T05:17:53;4.50;;;2.25;;
64225;SDS011;50545;56.064;26.178;2023-11-19T05:20:20;3.65;;;2.22;;
64225;SDS011;50545;56.064;26.178;2023-11-19T05:22:48;3.35;;;1.85;;
64225;SDS011;50545;56.064;26.178;2023-11-19T05:25:18;5.63;;;2.30;;
64225;SDS011;50545;56.064;26.178;2023-11-19T05:27:46;4.28;;;2.47;;
64225;SDS011;50545;56.064;26.178;2023-11-19T05:30:14;5.07;;;2.30;;
64225;SDS011;50545;56.064;26.178;2023-11-19T05:32:42;4.57;;;2.30;;
64225;SDS011;50545;56.064;26.178;2023-11-19T05:35:10;3.45;;;2.13;;
64225;SDS011;50545;56.064;26.178;2023-11-19T05:37:38;3.10;;;1.67;;
64225;SDS011;50545;56.064;26.178;2023-11-19T05:40:06;7.90;;;3.25;;
64225;SDS011;50545;56.064;26.178;2023-11-19T05:42:42;5.60;;;3.20;;
64225;SDS011;50545;56.064;26.178;2023-11-19T05:45:10;4.20;;;2.35;;
64225;SDS011;50545;56.064;26.178;2023-11-19T05:47:38;6.18;;;2.80;;
64225;SDS011;50545;56.064;26.178;2023-11-19T05:50:06;3.00;;;1.98;;
64225;SDS011;50545;56.064;26.178;2023-11-19T05:52:35;4.10;;;2.10;;
64225;SDS011;50545;56.064;26.178;2023-11-19T05:55:02;4.07;;;2.33;;
64225;SDS011;50545;56.064;26.178;2023-11-19T05:57:37;3.60;;;2.17;;
64225;SDS011;50545;56.064;26.178;2023-11-19T06:02:37;3.20;;;2.13;;
64225;SDS011;50545;56.064;26.178;2023-11-19T06:05:05;3.42;;;2.30;;
64225;SDS011;50545;56.064;26.178;2023-11-19T06:07:33;4.32;;;2.30;;
64225;SDS011;50545;56.064;26.178;2023-11-19T06:10:02;2.97;;;1.98;;
64225;SDS011;50545;56.064;26.178;2023-11-19T06:12:33;3.38;;;2.22;;
64225;SDS011;50545;56.064;26.178;2023-11-19T06:15:05;3.35;;;2.05;;
64225;SDS011;50545;56.064;26.178;2023-11-19T06:17:33;3.13;;;2.05;;
64225;SDS011;50545;56.064;26.178;2023-11-19T06:20:00;4.10;;;2.15;;
64225;SDS011;50545;56.064;26.178;2023-11-19T06:22:30;4.22;;;2.13;;
64225;SDS011;50545;56.064;26.178;2023-11-19T06:24:58;4.70;;;2.15;;
64225;SDS011;50545;56.064;26.178;2023-11-19T06:27:27;4.07;;;1.95;;
64225;SDS011;50545;56.064;26.178;2023-11-19T06:29:54;3.63;;;2.10;;
64225;SDS011;50545;56.064;26.178;2023-11-19T06:32:21;3.83;;;2.15;;
64225;SDS011;50545;56.064;26.178;2023-11-19T06:34:49;4.45;;;2.55;;
64225;SDS011;50545;56.064;26.178;2023-11-19T06:37:16;3.70;;;2.08;;
64225;SDS011;50545;56.064;26.178;2023-11-19T06:39:44;3.63;;;2.00;;
64225;SDS011;50545;56.064;26.178;2023-11-19T06:42:11;4.18;;;2.20;;
64225;SDS011;50545;56.064;26.178;2023-11-19T06:44:39;2.88;;;1.77;;
64225;SDS011;50545;56.064;26.178;2023-11-19T06:47:06;3.35;;;2.13;;
64225;SDS011;50545;56.064;26.178;2023-11-19T06:49:34;3.28;;;1.80;;
64225;SDS011;50545;56.064;26.178;2023-11-19T06:52:02;3.45;;;1.92;;
64225;SDS011;50545;56.064;26.178;2023-11-19T06:54:31;2.65;;;1.95;;
64225;SDS011;50545;56.064;26.178;2023-11-19T06:56:58;4.45;;;2.33;;
64225;SDS011;50545;56.064;26.178;2023-11-19T06:59:26;3.63;;;2.20;;
64225;SDS011;50545;56.064;26.178;2023-11-19T07:01:53;4.22;;;2.10;;
64225;SDS011;50545;56.064;26.178;2023-11-19T07:04:21;2.92;;;1.45;;
64225;SDS011;50545;56.064;26.178;2023-11-19T07:06:48;3.67;;;2.13;;
64225;SDS011;50545;56.064;26.178;2023-11-19T07:09:16;2.83;;;1.90;;
64225;SDS011;50545;56.064;26.178;2023-11-19T07:11:45;3.05;;;2.03;;
64225;SDS011;50545;56.064;26.178;2023-11-19T07:14:13;4.38;;;2.10;;
64225;SDS011;50545;56.064;26.178;2023-11-19T07:16:40;3.63;;;1.90;;
64225;SDS011;50545;56.064;26.178;2023-11-19T07:19:07;4.20;;;2.30;;
64225;SDS011;50545;56.064;26.178;2023-11-19T07:21:35;2.58;;;1.85;;
64225;SDS011;50545;56.064;26.178;2023-11-19T07:26:33;2.95;;;1.35;;
64225;SDS011;50545;56.064;26.178;2023-11-19T07:29:01;2.80;;;1.73;;
64225;SDS011;50545;56.064;26.178;2023-11-19T07:31:28;4.65;;;2.30;;
64225;SDS011;50545;56.064;26.178;2023-11-19T07:33:56;3.35;;;1.88;;
64225;SDS011;50545;56.064;26.178;2023-11-19T07:36:23;3.95;;;2.08;;
64225;SDS011;50545;56.064;26.178;2023-11-19T07:38:51;3.97;;;2.08;;
64225;SDS011;50545;56.064;26.178;2023-11-19T07:41:18;4.38;;;1.98;;
64225;SDS011;50545;56.064;26.178;2023-11-19T07:43:46;3.42;;;2.05;;
64225;SDS011;50545;56.064;26.178;2023-11-19T07:46:14;4.93;;;2.22;;
64225;SDS011;50545;56.064;26.178;2023-11-19T07:48:41;3.67;;;2.33;;
64225;SDS011;50545;56.064;26.178;2023-11-19T07:51:10;4.25;;;2.25;;
64225;SDS011;50545;56.064;26.178;2023-11-19T07:53:39;3.53;;;2.05;;
64225;SDS011;50545;56.064;26.178;2023-11-19T07:56:08;3.63;;;2.08;;
64225;SDS011;50545;56.064;26.178;2023-11-19T07:58:35;3.30;;;1.85;;
64225;SDS011;50545;56.064;26.178;2023-11-19T08:01:05;5.82;;;2.75;;
64225;SDS011;50545;56.064;26.178;2023-11-19T08:03:33;3.13;;;1.75;;
64225;SDS011;50545;56.064;26.178;2023-11-19T08:06:01;6.18;;;2.50;;
64225;SDS011;50545;56.064;26.178;2023-11-19T08:08:30;4.53;;;2.17;;
64225;SDS011;50545;56.064;26.178;2023-11-19T08:11:00;4.53;;;2.15;;
64225;SDS011;50545;56.064;26.178;2023-11-19T08:13:28;3.15;;;1.88;;
64225;SDS011;50545;56.064;26.178;2023-11-19T08:15:55;4.45;;;2.35;;
64225;SDS011;50545;56.064;26.178;2023-11-19T08:18:25;5.65;;;2.03;;
64225;SDS011;50545;56.064;26.178;2023-11-19T08:20:52;5.00;;;2.38;;
64225;SDS011;50545;56.064;26.178;2023-11-19T08:23:20;5.88;;;2.10;;
64225;SDS011;50545;56.064;26.178;2023-11-19T08:25:47;3.45;;;2.22;;
64225;SDS011;50545;56.064;26.178;2023-11-19T08:28:15;4.28;;;2.45;;
64225;SDS011;50545;56.064;26.178;2023-11-19T08:30:42;4.38;;;2.50;;
64225;SDS011;50545;56.064;26.178;2023-11-19T08:33:10;4.93;;;2.25;;
64225;SDS011;50545;56.064;26.178;2023-11-19T08:35:38;4.97;;;2.67;;
64225;SDS011;50545;56.064;26.178;2023-11-19T08:38:06;4.40;;;2.17;;
64225;SDS011;50545;56.064;26.178;2023-11-19T08:40:33;4.55;;;2.60;;
64225;SDS011;50545;56.064;26.178;2023-11-19T08:43:01;4.95;;;2.28;;
64225;SDS011;50545;56.064;26.178;2023-11-19T08:45:28;4.13;;;2.28;;
64225;SDS011;50545;56.064;26.178;2023-11-19T08:47:57;5.35;;;2.60;;
64225;SDS011;50545;56.064;26.178;2023-11-19T08:50:24;3.75;;;2.15;;
64225;SDS011;50545;56.064;26.178;2023-11-19T08:52:52;3.38;;;2.25;;
64225;SDS011;50545;56.064;26.178;2023-11-19T08:55:19;4.05;;;2.55;;
64225;SDS011;50545;56.064;26.178;2023-11-19T08:57:47;4.47;;;2.03;;
64225;SDS011;50545;56.064;26.178;2023-11-19T09:00:14;4.55;;;2.35;;
64225;SDS011;50545;56.064;26.178;2023-11-19T09:02:42;3.45;;;2.00;;
64225;SDS011;50545;56.064;26.178;2023-11-19T09:05:10;3.80;;;2.15;;
64225;SDS011;50545;56.064;26.178;2023-11-19T09:07:38;4.97;;;2.47;;
64225;SDS011;50545;56.064;26.178;2023-11-19T09:10:05;3.92;;;2.30;;
64225;SDS011;50545;56.064;26.178;2023-11-19T09:12:35;2.53;;;1.85;;
64225;SDS011;50545;56.064;26.178;2023-11-19T09:15:02;3.72;;;2.03;;
64225;SDS011;50545;56.064;26.178;2023-11-19T09:17:30;3.35;;;2.35;;
64225;SDS011;50545;56.064;26.178;2023-11-19T09:19:58;4.50;;;2.10;;
64225;SDS011;50545;56.064;26.178;2023-11-19T09:22:25;3.38;;;2.13;;
64225;SDS011;50545;56.064;26.178;2023-11-19T09:24:52;4.95;;;2.30;;
64225;SDS011;50545;56.064;26.178;2023-11-19T09:27:20;6.10;;;2.63;;
64225;SDS011;50545;56.064;26.178;2023-11-19T09:29:48;7.28;;;3.03;;
64225;SDS011;50545;56.064;26.178;2023-11-19T09:32:17;7.95;;;3.97;;
64225;SDS011;50545;56.064;26.178;2023-11-19T09:34:44;6.50;;;3.35;;
64225;SDS011;50545;56.064;26.178;2023-11-19T09:37:13;4.63;;;2.90;;
64225;SDS011;50545;56.064;26.178;2023-11-19T09:39:43;5.88;;;2.15;;
64225;SDS011;50545;56.064;26.178;2023-11-19T09:42:11;4.40;;;2.20;;
64225;SDS011;50545;56.064;26.178;2023-11-19T09:44:39;4.50;;;2.45;;
64225;SDS011;50545;56.064;26.178;2023-11-19T09:47:10;5.65;;;2.42;;
64225;SDS011;50545;56.064;26.178;2023-11-19T09:49:39;6.50;;;2.93;;
64225;SDS011;50545;56.064;26.178;2023-11-19T09:52:07;4.47;;;2.35;;
64225;SDS011;50545;56.064;26.178;2023-11-19T09:54:34;5.40;;;2.35;;
64225;SDS011;50545;56.064;26.178;2023-11-19T09:57:03;4.22;;;2.70;;
64225;SDS011;50545;56.064;26.178;2023-11-19T09:59:32;3.85;;;2.65;;
64225;SDS011;50545;56.064;26.178;2023-11-19T10:02:00;4.70;;;2.40;;
64225;SDS011;50545;56.064;26.178;2023-11-19T10:04:29;4.55;;;2.20;;
64225;SDS011;50545;56.064;26.178;2023-11-19T10:06:59;4.10;;;2.38;;
64225;SDS011;50545;56.064;26.178;2023-11-19T10:09:27;2.92;;;2.08;;
64225;SDS011;50545;56.064;26.178;2023-11-19T10:11:54;4.03;;;2.25;;
64225;SDS011;50545;56.064;26.178;2023-11-19T10:14:22;3.72;;;2.58;;
64225;SDS011;50545;56.064;26.178;2023-11-19T10:16:50;4.70;;;2.22;;
64225;SDS011;50545;56.064;26.178;2023-11-19T10:19:21;4.57;;;2.33;;
64225;SDS011;50545;56.064;26.178;2023-11-19T10:21:49;3.55;;;2.17;;
64225;SDS011;50545;56.064;26.178;2023-11-19T10:24:16;4.55;;;2.80;;
64225;SDS011;50545;56.064;26.178;2023-11-19T10:26:57;2.92;;;2.05;;
64225;SDS011;50545;56.064;26.178;2023-11-19T10:29:25;4.15;;;2.30;;
64225;SDS011;50545;56.064;26.178;2023-11-19T10:31:56;4.35;;;2.78;;
64225;SDS011;50545;56.064;26.178;2023-11-19T10:34:44;6.40;;;2.58;;
64225;SDS011;50545;56.064;26.178;2023-11-19T10:37:27;4.32;;;2.40;;
64225;SDS011;50545;56.064;26.178;2023-11-19T10:39:59;6.00;;;3.75;;
64225;SDS011;50545;56.064;26.178;2023-11-19T10:42:27;6.28;;;3.53;;
64225;SDS011;50545;56.064;26.178;2023-11-19T10:44:54;3.50;;;2.13;;
64225;SDS011;50545;56.064;26.178;2023-11-19T10:47:22;5.80;;;3.25;;
64225;SDS011;50545;56.064;26.178;2023-11-19T10:49:53;7.45;;;3.13;;
64225;SDS011;50545;56.064;26.178;2023-11-19T10:52:20;5.63;;;3.10;;
64225;SDS011;50545;56.064;26.178;2023-11-19T10:54:49;5.50;;;2.97;;
64225;SDS011;50545;56.064;26.178;2023-11-19T10:57:20;5.88;;;3.10;;
64225;SDS011;50545;56.064;26.178;2023-11-19T10:59:51;6.32;;;3.20;;
64225;SDS011;50545;56.064;26.178;2023-11-19T11:02:23;6.97;;;3.67;;
64225;SDS011;50545;56.064;26.178;2023-11-19T11:04:53;5.57;;;2.83;;
64225;SDS011;50545;56.064;26.178;2023-11-19T11:07:22;6.38;;;3.00;;
64225;SDS011;50545;56.064;26.178;2023-11-19T11:10:05;7.13;;;3.08;;
64225;SDS011;50545;56.064;26.178;2023-11-19T11:12:36;4.25;;;2.53;;
64225;SDS011;50545;56.064;26.178;2023-11-19T11:15:04;5.40;;;2.80;;
64225;SDS011;50545;56.064;26.178;2023-11-19T11:17:33;6.40;;;2.85;;
64225;SDS011;50545;56.064;26.178;2023-11-19T11:20:02;4.72;;;2.80;;
64225;SDS011;50545;56.064;26.178;2023-11-19T11:22:33;4.38;;;2.60;;
64225;SDS011;50545;56.064;26.178;2023-11-19T11:25:52;5.07;;;2.47;;
64225;SDS011;50545;56.064;26.178;2023-11-19T11:28:47;3.83;;;2.17;;
64225;SDS011;50545;56.064;26.178;2023-11-19T11:34:04;3.78;;;2.42;;
64225;SDS011;50545;56.064;26.178;2023-11-19T11:36:53;4.57;;;2.28;;
64225;SDS011;50545;56.064;26.178;2023-11-19T11:39:24;5.22;;;2.33;;
64225;SDS011;50545;56.064;26.178;2023-11-19T11:42:41;3.78;;;2.38;;
64225;SDS011;50545;56.064;26.178;2023-11-19T11:45:02;9.27;;;2.83;;
64225;SDS011;50545;56.064;26.178;2023-11-19T11:50:16;8.30;;;2.58;;
64225;SDS011;50545;56.064;26.178;2023-11-19T11:57:55;4.03;;;2.22;;
64225;SDS011;50545;56.064;26.178;2023-11-19T12:02:59;4.95;;;2.72;;
64225;SDS011;50545;56.064;26.178;2023-11-19T12:05:27;5.40;;;3.10;;
64225;SDS011;50545;56.064;26.178;2023-11-19T12:10:25;5.95;;;2.90;;
64225;SDS011;50545;56.064;26.178;2023-11-19T12:12:58;5.38;;;2.63;;
64225;SDS011;50545;56.064;26.178;2023-11-19T12:15:26;4.60;;;2.75;;
64225;SDS011;50545;56.064;26.178;2023-11-19T12:17:54;6.03;;;2.80;;
64225;SDS011;50545;56.064;26.178;2023-11-19T12:20:22;5.38;;;3.00;;
64225;SDS011;50545;56.064;26.178;2023-11-19T12:22:54;4.50;;;2.55;;
64225;SDS011;50545;56.064;26.178;2023-11-19T12:25:22;3.67;;;2.25;;
64225;SDS011;50545;56.064;26.178;2023-11-19T12:27:50;6.85;;;2.78;;
64225;SDS011;50545;56.064;26.178;2023-11-19T12:30:23;6.18;;;2.75;;
64225;SDS011;50545;56.064;26.178;2023-11-19T12:32:52;5.80;;;3.28;;
64225;SDS011;50545;56.064;26.178;2023-11-19T12:35:21;5.90;;;3.00;;
64225;SDS011;50545;56.064;26.178;2023-11-19T12:37:50;4.80;;;3.03;;
64225;SDS011;50545;56.064;26.178;2023-11-19T12:40:23;5.72;;;3.22;;
64225;SDS011;50545;56.064;26.178;2023-11-19T12:42:52;6.40;;;3.45;;
64225;SDS011;50545;56.064;26.178;2023-11-19T12:45:21;6.50;;;3.60;;
64225;SDS011;50545;56.064;26.178;2023-11-19T12:48:03;8.00;;;4.03;;
64225;SDS011;50545;56.064;26.178;2023-11-19T12:53:18;5.75;;;2.70;;
64225;SDS011;50545;56.064;26.178;2023-11-19T12:55:47;6.93;;;3.28;;
64225;SDS011;50545;56.064;26.178;2023-11-19T12:58:27;4.38;;;2.85;;
64225;SDS011;50545;56.064;26.178;2023-11-19T13:01:05;7.00;;;3.50;;
64225;SDS011;50545;56.064;26.178;2023-11-19T13:03:35;6.05;;;3.10;;
64225;SDS011;50545;56.064;26.178;2023-11-19T13:06:06;6.50;;;3.25;;
64225;SDS011;50545;56.064;26.178;2023-11-19T13:08:38;4.75;;;2.95;;
64225;SDS011;50545;56.064;26.178;2023-11-19T13:11:11;6.43;;;3.10;;
64225;SDS011;50545;56.064;26.178;2023-11-19T13:13:55;5.32;;;2.97;;
64225;SDS011;50545;56.064;26.178;2023-11-19T13:16:25;5.18;;;2.78;;
64225;SDS011;50545;56.064;26.178;2023-11-19T13:18:53;8.68;;;3.08;;
64225;SDS011;50545;56.064;26.178;2023-11-19T13:21:21;6.85;;;3.38;;
64225;SDS011;50545;56.064;26.178;2023-11-19T13:23:49;5.57;;;2.85;;
64225;SDS011;50545;56.064;26.178;2023-11-19T13:26:17;8.65;;;3.80;;
64225;SDS011;50545;56.064;26.178;2023-11-19T13:28:45;5.05;;;2.63;;
64225;SDS011;50545;56.064;26.178;2023-11-19T13:31:12;4.00;;;2.22;;
64225;SDS011;50545;56.064;26.178;2023-11-19T13:33:41;5.97;;;2.97;;
64225;SDS011;50545;56.064;26.178;2023-11-19T13:36:09;5.90;;;3.55;;
64225;SDS011;50545;56.064;26.178;2023-11-19T13:38:41;7.72;;;3.55;;
64225;SDS011;50545;56.064;26.178;2023-11-19T13:41:11;7.00;;;3.70;;
64225;SDS011;50545;56.064;26.178;2023-11-19T13:43:39;6.07;;;3.40;;
64225;SDS011;50545;56.064;26.178;2023-11-19T13:46:07;6.97;;;3.78;;
64225;SDS011;50545;56.064;26.178;2023-11-19T13:48:37;6.43;;;3.33;;
64225;SDS011;50545;56.064;26.178;2023-11-19T13:51:05;6.88;;;3.83;;
64225;SDS011;50545;56.064;26.178;2023-11-19T13:53:33;9.15;;;3.70;;
64225;SDS011;50545;56.064;26.178;2023-11-19T13:56:03;5.75;;;3.50;;
64225;SDS011;50545;56.064;26.178;2023-11-19T13:58:30;5.97;;;3.13;;
64225;SDS011;50545;56.064;26.178;2023-11-19T14:00:58;6.30;;;3.63;;
64225;SDS011;50545;56.064;26.178;2023-11-19T14:03:25;6.43;;;3.40;;
64225;SDS011;50545;56.064;26.178;2023-11-19T14:05:53;6.65;;;3.35;;
64225;SDS011;50545;56.064;26.178;2023-11-19T14:08:21;8.73;;;3.72;;
64225;SDS011;50545;56.064;26.178;2023-11-19T14:10:51;4.50;;;2.90;;
64225;SDS011;50545;56.064;26.178;2023-11-19T14:13:22;4.65;;;2.67;;
64225;SDS011;50545;56.064;26.178;2023-11-19T14:15:50;5.85;;;2.53;;
64225;SDS011;50545;56.064;26.178;2023-11-19T14:18:18;4.85;;;2.63;;
64225;SDS011;50545;56.064;26.178;2023-11-19T14:20:45;4.47;;;2.47;;
64225;SDS011;50545;56.064;26.178;2023-11-19T14:23:13;3.65;;;2.45;;
64225;SDS011;50545;56.064;26.178;2023-11-19T14:25:40;6.13;;;2.80;;
64225;SDS011;50545;56.064;26.178;2023-11-19T14:28:08;4.90;;;2.60;;
64225;SDS011;50545;56.064;26.178;2023-11-19T14:30:36;5.03;;;2.95;;
64225;SDS011;50545;56.064;26.178;2023-11-19T14:33:03;5.18;;;2.75;;
64225;SDS011;50545;56.064;26.178;2023-11-19T14:35:31;6.63;;;2.55;;
64225;SDS011;50545;56.064;26.178;2023-11-19T14:38:00;3.72;;;2.58;;
64225;SDS011;50545;56.064;26.178;2023-11-19T14:40:31;4.47;;;2.30;;
64225;SDS011;50545;56.064;26.178;2023-11-19T14:43:01;2.85;;;1.98;;
64225;SDS011;50545;56.064;26.178;2023-11-19T14:45:29;5.82;;;2.70;;
64225;SDS011;50545;56.064;26.178;2023-11-19T14:48:07;5.88;;;2.67;;
64225;SDS011;50545;56.064;26.178;2023-11-19T14:50:34;3.97;;;2.45;;
64225;SDS011;50545;56.064;26.178;2023-11-19T14:53:02;3.60;;;2.05;;
64225;SDS011;50545;56.064;26.178;2023-11-19T14:55:30;3.30;;;2.13;;
64225;SDS011;50545;56.064;26.178;2023-11-19T14:57:58;3.80;;;2.30;;
64225;SDS011;50545;56.064;26.178;2023-11-19T15:00:35;3.83;;;2.22;;
64225;SDS011;50545;56.064;26.178;2023-11-19T15:03:03;3.33;;;1.85;;
64225;SDS011;50545;56.064;26.178;2023-11-19T15:05:30;4.13;;;2.47;;
64225;SDS011;50545;56.064;26.178;2023-11-19T15:07:58;4.72;;;2.70;;
64225;SDS011;50545;56.064;26.178;2023-11-19T15:10:25;5.22;;;2.33;;
64225;SDS011;50545;56.064;26.178;2023-11-19T15:12:53;3.65;;;2.33;;
64225;SDS011;50545;56.064;26.178;2023-11-19T15:15:21;1.67;;;1.48;;
64225;SDS011;50545;56.064;26.178;2023-11-19T15:17:51;4.72;;;2.60;;